sensor_id;sensor_type;location;lat;lon;timestamp;temperature;humidity
6520;DHT22;3293;51.690;5.982;2023-05-07T00:04:19;14.50;99.90
6520;DHT22;3293;51.690;5.982;2023-05-07T00:09:20;14.40;99.90
6520;DHT22;3293;51.690;5.982;2023-05-07T00:14:20;14.30;99.90
6520;DHT22;3293;51.690;5.982;2023-05-07T00:19:20;14.20;99.90
6520;DHT22;3293;51.690;5.982;2023-05-07T00:24:20;14.10;99.90
6520;DHT22;3293;51.690;5.982;2023-05-07T00:29:20;14.10;99.90
6520;DHT22;3293;51.690;5.982;2023-05-07T00:34:20;14.00;99.90
6520;DHT22;3293;51.690;5.982;2023-05-07T00:39:20;13.90;99.90
6520;DHT22;3293;51.690;5.982;2023-05-07T00:44:20;13.90;99.90
6520;DHT22;3293;51.690;5.982;2023-05-07T00:49:20;13.90;99.90
6520;DHT22;3293;51.690;5.982;2023-05-07T00:54:20;13.80;99.90
6520;DHT22;3293;51.690;5.982;2023-05-07T00:59:21;13.80;99.90
6520;DHT22;3293;51.690;5.982;2023-05-07T01:04:21;13.70;99.90
6520;DHT22;3293;51.690;5.982;2023-05-07T01:09:21;13.70;99.90
6520;DHT22;3293;51.690;5.982;2023-05-07T01:14:22;13.60;99.90
6520;DHT22;3293;51.690;5.982;2023-05-07T01:19:22;13.60;99.90
6520;DHT22;3293;51.690;5.982;2023-05-07T01:24:22;13.60;99.90
6520;DHT22;3293;51.690;5.982;2023-05-07T01:29:22;13.60;99.90
6520;DHT22;3293;51.690;5.982;2023-05-07T01:34:22;13.60;99.90
6520;DHT22;3293;51.690;5.982;2023-05-07T01:39:28;13.70;99.90
6520;DHT22;3293;51.690;5.982;2023-05-07T01:44:28;13.80;99.90
6520;DHT22;3293;51.690;5.982;2023-05-07T01:49:29;13.80;99.90
6520;DHT22;3293;51.690;5.982;2023-05-07T01:54:30;13.80;99.90
6520;DHT22;3293;51.690;5.982;2023-05-07T01:59:30;13.90;99.90
6520;DHT22;3293;51.690;5.982;2023-05-07T02:04:30;13.90;99.90
6520;DHT22;3293;51.690;5.982;2023-05-07T02:09:30;13.90;99.90
6520;DHT22;3293;51.690;5.982;2023-05-07T02:14:30;13.90;99.90
6520;DHT22;3293;51.690;5.982;2023-05-07T02:19:30;13.90;99.90
6520;DHT22;3293;51.690;5.982;2023-05-07T02:24:30;13.90;99.90
6520;DHT22;3293;51.690;5.982;2023-05-07T02:29:30;13.90;99.90
6520;DHT22;3293;51.690;5.982;2023-05-07T02:34:30;14.00;99.90
6520;DHT22;3293;51.690;5.982;2023-05-07T02:39:30;14.00;99.90
6520;DHT22;3293;51.690;5.982;2023-05-07T02:44:30;14.00;99.90
6520;DHT22;3293;51.690;5.982;2023-05-07T02:49:31;13.90;99.90
6520;DHT22;3293;51.690;5.982;2023-05-07T02:54:30;13.80;99.90
6520;DHT22;3293;51.690;5.982;2023-05-07T02:59:31;13.80;99.90
6520;DHT22;3293;51.690;5.982;2023-05-07T03:04:31;13.80;99.90
6520;DHT22;3293;51.690;5.982;2023-05-07T03:09:31;13.90;99.90
6520;DHT22;3293;51.690;5.982;2023-05-07T03:14:30;13.90;99.90
6520;DHT22;3293;51.690;5.982;2023-05-07T03:19:30;13.90;99.90
6520;DHT22;3293;51.690;5.982;2023-05-07T03:24:30;13.90;99.90
6520;DHT22;3293;51.690;5.982;2023-05-07T03:29:30;13.90;99.90
6520;DHT22;3293;51.690;5.982;2023-05-07T03:34:30;14.00;99.90
6520;DHT22;3293;51.690;5.982;2023-05-07T03:39:30;14.00;99.90
6520;DHT22;3293;51.690;5.982;2023-05-07T03:44:31;13.90;99.90
6520;DHT22;3293;51.690;5.982;2023-05-07T03:49:31;13.90;99.90
6520;DHT22;3293;51.690;5.982;2023-05-07T03:54:31;13.90;99.90
6520;DHT22;3293;51.690;5.982;2023-05-07T03:59:31;13.90;99.90
6520;DHT22;3293;51.690;5.982;2023-05-07T04:04:31;13.80;99.90
6520;DHT22;3293;51.690;5.982;2023-05-07T04:09:32;13.80;99.90
6520;DHT22;3293;51.690;5.982;2023-05-07T04:14:32;13.80;99.90
6520;DHT22;3293;51.690;5.982;2023-05-07T04:19:33;13.80;99.90
6520;DHT22;3293;51.690;5.982;2023-05-07T04:24:33;13.80;99.90
6520;DHT22;3293;51.690;5.982;2023-05-07T04:29:33;13.80;99.90
6520;DHT22;3293;51.690;5.982;2023-05-07T04:34:33;13.90;99.90
6520;DHT22;3293;51.690;5.982;2023-05-07T04:39:33;13.90;99.90
6520;DHT22;3293;51.690;5.982;2023-05-07T04:44:35;14.00;99.90
6520;DHT22;3293;51.690;5.982;2023-05-07T04:49:37;13.90;99.90
6520;DHT22;3293;51.690;5.982;2023-05-07T04:54:37;13.90;99.90
6520;DHT22;3293;51.690;5.982;2023-05-07T04:59:37;14.00;99.90
6520;DHT22;3293;51.690;5.982;2023-05-07T05:04:37;14.10;99.90
6520;DHT22;3293;51.690;5.982;2023-05-07T05:09:37;14.10;99.90
6520;DHT22;3293;51.690;5.982;2023-05-07T05:14:37;14.10;99.90
6520;DHT22;3293;51.690;5.982;2023-05-07T05:19:37;14.20;99.90
6520;DHT22;3293;51.690;5.982;2023-05-07T05:24:36;14.30;99.90
6520;DHT22;3293;51.690;5.982;2023-05-07T05:29:36;14.30;99.90
6520;DHT22;3293;51.690;5.982;2023-05-07T05:34:36;14.40;99.90
6520;DHT22;3293;51.690;5.982;2023-05-07T05:39:36;14.60;99.90
6520;DHT22;3293;51.690;5.982;2023-05-07T05:44:36;14.80;99.90
6520;DHT22;3293;51.690;5.982;2023-05-07T05:49:36;15.00;99.90
6520;DHT22;3293;51.690;5.982;2023-05-07T05:54:36;15.50;99.90
6520;DHT22;3293;51.690;5.982;2023-05-07T05:59:36;15.90;99.90
6520;DHT22;3293;51.690;5.982;2023-05-07T06:04:36;16.20;99.90
6520;DHT22;3293;51.690;5.982;2023-05-07T06:09:36;16.50;99.90
6520;DHT22;3293;51.690;5.982;2023-05-07T06:14:36;16.50;99.90
6520;DHT22;3293;51.690;5.982;2023-05-07T06:19:36;16.30;99.90
6520;DHT22;3293;51.690;5.982;2023-05-07T06:24:36;16.20;99.90
6520;DHT22;3293;51.690;5.982;2023-05-07T06:29:35;16.00;99.90
6520;DHT22;3293;51.690;5.982;2023-05-07T06:34:36;16.10;99.90
6520;DHT22;3293;51.690;5.982;2023-05-07T06:39:36;16.30;99.90
6520;DHT22;3293;51.690;5.982;2023-05-07T06:44:36;16.40;99.90
6520;DHT22;3293;51.690;5.982;2023-05-07T06:49:36;16.50;99.90
6520;DHT22;3293;51.690;5.982;2023-05-07T06:54:36;16.60;99.90
6520;DHT22;3293;51.690;5.982;2023-05-07T06:59:36;16.60;99.90
6520;DHT22;3293;51.690;5.982;2023-05-07T07:04:36;16.90;99.90
6520;DHT22;3293;51.690;5.982;2023-05-07T07:09:36;17.20;99.90
6520;DHT22;3293;51.690;5.982;2023-05-07T07:14:35;17.60;99.90
6520;DHT22;3293;51.690;5.982;2023-05-07T07:19:35;18.00;99.90
6520;DHT22;3293;51.690;5.982;2023-05-07T07:24:35;18.50;99.90
6520;DHT22;3293;51.690;5.982;2023-05-07T07:29:35;18.40;99.90
6520;DHT22;3293;51.690;5.982;2023-05-07T07:34:35;18.20;99.90
6520;DHT22;3293;51.690;5.982;2023-05-07T07:39:35;18.30;99.90
6520;DHT22;3293;51.690;5.982;2023-05-07T07:44:37;18.50;99.90
6520;DHT22;3293;51.690;5.982;2023-05-07T07:49:39;18.40;99.90
6520;DHT22;3293;51.690;5.982;2023-05-07T07:54:39;18.10;99.90
6520;DHT22;3293;51.690;5.982;2023-05-07T07:59:40;18.00;99.90
6520;DHT22;3293;51.690;5.982;2023-05-07T08:04:40;18.00;99.90
6520;DHT22;3293;51.690;5.982;2023-05-07T08:09:40;18.20;99.90
6520;DHT22;3293;51.690;5.982;2023-05-07T08:14:40;18.40;99.90
6520;DHT22;3293;51.690;5.982;2023-05-07T08:19:40;18.70;99.90
6520;DHT22;3293;51.690;5.982;2023-05-07T08:24:40;19.00;99.90
6520;DHT22;3293;51.690;5.982;2023-05-07T08:29:40;19.30;99.90
6520;DHT22;3293;51.690;5.982;2023-05-07T08:34:40;19.50;99.90
6520;DHT22;3293;51.690;5.982;2023-05-07T08:39:40;20.10;99.90
6520;DHT22;3293;51.690;5.982;2023-05-07T08:44:41;20.90;99.90
6520;DHT22;3293;51.690;5.982;2023-05-07T08:49:45;21.40;99.90
6520;DHT22;3293;51.690;5.982;2023-05-07T08:54:46;22.80;99.90
6520;DHT22;3293;51.690;5.982;2023-05-07T08:59:46;23.70;94.30
6520;DHT22;3293;51.690;5.982;2023-05-07T09:04:46;24.00;93.70
6520;DHT22;3293;51.690;5.982;2023-05-07T09:09:46;24.70;92.00
6520;DHT22;3293;51.690;5.982;2023-05-07T09:14:46;25.50;79.20
6520;DHT22;3293;51.690;5.982;2023-05-07T09:19:46;26.30;76.90
6520;DHT22;3293;51.690;5.982;2023-05-07T09:24:51;26.40;64.10
6520;DHT22;3293;51.690;5.982;2023-05-07T09:29:51;24.90;81.40
6520;DHT22;3293;51.690;5.982;2023-05-07T09:34:51;24.80;85.50
6520;DHT22;3293;51.690;5.982;2023-05-07T09:39:51;24.80;82.40
6520;DHT22;3293;51.690;5.982;2023-05-07T09:44:51;23.90;81.90
6520;DHT22;3293;51.690;5.982;2023-05-07T09:49:55;23.80;86.30
6520;DHT22;3293;51.690;5.982;2023-05-07T09:54:57;23.90;85.20
6520;DHT22;3293;51.690;5.982;2023-05-07T09:59:59;23.50;89.80
6520;DHT22;3293;51.690;5.982;2023-05-07T10:05:02;23.30;87.20
6520;DHT22;3293;51.690;5.982;2023-05-07T10:10:03;23.00;90.50
6520;DHT22;3293;51.690;5.982;2023-05-07T10:15:06;23.10;91.40
6520;DHT22;3293;51.690;5.982;2023-05-07T10:20:08;22.80;92.90
6520;DHT22;3293;51.690;5.982;2023-05-07T10:25:34;22.70;91.40
6520;DHT22;3293;51.690;5.982;2023-05-07T10:36:00;22.80;92.90
6520;DHT22;3293;51.690;5.982;2023-05-07T10:41:04;23.20;90.60
6520;DHT22;3293;51.690;5.982;2023-05-07T10:46:16;23.20;90.30
6520;DHT22;3293;51.690;5.982;2023-05-07T10:51:22;23.20;85.80
6520;DHT22;3293;51.690;5.982;2023-05-07T11:01:54;23.20;85.70
6520;DHT22;3293;51.690;5.982;2023-05-07T11:12:10;23.90;61.20
6520;DHT22;3293;51.690;5.982;2023-05-07T11:17:10;24.10;68.70
6520;DHT22;3293;51.690;5.982;2023-05-07T11:27:33;23.80;72.70
6520;DHT22;3293;51.690;5.982;2023-05-07T11:32:33;23.80;77.00
6520;DHT22;3293;51.690;5.982;2023-05-07T11:37:32;23.80;70.20
6520;DHT22;3293;51.690;5.982;2023-05-07T11:42:34;23.50;74.30
6520;DHT22;3293;51.690;5.982;2023-05-07T11:47:35;23.40;72.00
6520;DHT22;3293;51.690;5.982;2023-05-07T11:52:35;23.40;70.30
6520;DHT22;3293;51.690;5.982;2023-05-07T11:57:35;23.30;72.10
6520;DHT22;3293;51.690;5.982;2023-05-07T12:02:35;23.50;70.50
6520;DHT22;3293;51.690;5.982;2023-05-07T12:07:35;23.30;69.50
6520;DHT22;3293;51.690;5.982;2023-05-07T12:12:39;23.20;69.70
6520;DHT22;3293;51.690;5.982;2023-05-07T12:17:41;23.20;69.10
6520;DHT22;3293;51.690;5.982;2023-05-07T12:22:41;23.10;71.20
6520;DHT22;3293;51.690;5.982;2023-05-07T12:27:41;23.00;68.40
6520;DHT22;3293;51.690;5.982;2023-05-07T12:32:41;23.00;70.70
6520;DHT22;3293;51.690;5.982;2023-05-07T12:37:41;23.00;71.40
6520;DHT22;3293;51.690;5.982;2023-05-07T12:42:41;22.90;68.70
6520;DHT22;3293;51.690;5.982;2023-05-07T12:47:45;22.80;70.90
6520;DHT22;3293;51.690;5.982;2023-05-07T12:52:47;22.60;71.50
6520;DHT22;3293;51.690;5.982;2023-05-07T12:57:51;22.60;73.00
6520;DHT22;3293;51.690;5.982;2023-05-07T13:02:54;22.60;68.60
6520;DHT22;3293;51.690;5.982;2023-05-07T13:07:55;22.40;72.50
6520;DHT22;3293;51.690;5.982;2023-05-07T13:12:55;22.40;70.80
6520;DHT22;3293;51.690;5.982;2023-05-07T13:17:54;22.10;73.50
6520;DHT22;3293;51.690;5.982;2023-05-07T13:22:55;22.10;77.80
6520;DHT22;3293;51.690;5.982;2023-05-07T13:27:54;22.00;82.50
6520;DHT22;3293;51.690;5.982;2023-05-07T13:32:55;21.70;83.20
6520;DHT22;3293;51.690;5.982;2023-05-07T13:37:55;21.50;86.40
6520;DHT22;3293;51.690;5.982;2023-05-07T13:42:57;21.50;91.10
6520;DHT22;3293;51.690;5.982;2023-05-07T13:47:58;21.30;91.00
6520;DHT22;3293;51.690;5.982;2023-05-07T13:52:58;21.20;91.40
6520;DHT22;3293;51.690;5.982;2023-05-07T13:57:59;21.20;92.20
6520;DHT22;3293;51.690;5.982;2023-05-07T14:02:59;21.20;93.30
6520;DHT22;3293;51.690;5.982;2023-05-07T14:07:59;21.20;93.80
6520;DHT22;3293;51.690;5.982;2023-05-07T14:12:59;21.10;95.90
6520;DHT22;3293;51.690;5.982;2023-05-07T14:18:00;21.10;96.80
6520;DHT22;3293;51.690;5.982;2023-05-07T14:23:00;20.60;99.90
6520;DHT22;3293;51.690;5.982;2023-05-07T14:28:00;20.20;99.90
6520;DHT22;3293;51.690;5.982;2023-05-07T14:33:00;19.30;99.90
6520;DHT22;3293;51.690;5.982;2023-05-07T14:38:00;18.50;99.90
6520;DHT22;3293;51.690;5.982;2023-05-07T14:43:00;18.10;99.90
6520;DHT22;3293;51.690;5.982;2023-05-07T14:47:59;17.80;99.90
6520;DHT22;3293;51.690;5.982;2023-05-07T14:52:59;17.50;99.90
6520;DHT22;3293;51.690;5.982;2023-05-07T14:57:59;17.20;99.90
6520;DHT22;3293;51.690;5.982;2023-05-07T15:03:07;16.90;99.90
6520;DHT22;3293;51.690;5.982;2023-05-07T15:08:07;16.60;99.90
6520;DHT22;3293;51.690;5.982;2023-05-07T15:13:08;16.30;99.90
6520;DHT22;3293;51.690;5.982;2023-05-07T15:18:09;16.30;99.90
6520;DHT22;3293;51.690;5.982;2023-05-07T15:23:08;16.30;99.90
6520;DHT22;3293;51.690;5.982;2023-05-07T15:28:14;16.30;99.90
6520;DHT22;3293;51.690;5.982;2023-05-07T15:33:14;16.30;99.90
6520;DHT22;3293;51.690;5.982;2023-05-07T15:38:14;16.30;99.90
6520;DHT22;3293;51.690;5.982;2023-05-07T15:43:15;16.30;99.90
6520;DHT22;3293;51.690;5.982;2023-05-07T15:48:15;16.30;99.90
6520;DHT22;3293;51.690;5.982;2023-05-07T15:53:15;16.50;99.90
6520;DHT22;3293;51.690;5.982;2023-05-07T15:58:14;16.60;99.90
6520;DHT22;3293;51.690;5.982;2023-05-07T16:03:18;16.50;99.90
6520;DHT22;3293;51.690;5.982;2023-05-07T16:08:20;16.70;99.90
6520;DHT22;3293;51.690;5.982;2023-05-07T16:13:20;16.90;99.90
6520;DHT22;3293;51.690;5.982;2023-05-07T16:18:20;17.10;99.90
6520;DHT22;3293;51.690;5.982;2023-05-07T16:23:20;17.30;99.90
6520;DHT22;3293;51.690;5.982;2023-05-07T16:28:22;17.50;99.90
6520;DHT22;3293;51.690;5.982;2023-05-07T16:33:22;17.70;99.90
6520;DHT22;3293;51.690;5.982;2023-05-07T16:38:22;17.70;99.90
6520;DHT22;3293;51.690;5.982;2023-05-07T16:43:22;17.50;99.90
6520;DHT22;3293;51.690;5.982;2023-05-07T16:48:22;17.40;99.90
6520;DHT22;3293;51.690;5.982;2023-05-07T16:53:22;17.30;99.90
6520;DHT22;3293;51.690;5.982;2023-05-07T16:58:22;17.20;99.90
6520;DHT22;3293;51.690;5.982;2023-05-07T17:03:22;17.30;99.90
6520;DHT22;3293;51.690;5.982;2023-05-07T17:08:22;17.30;99.90
6520;DHT22;3293;51.690;5.982;2023-05-07T17:13:22;17.20;99.90
6520;DHT22;3293;51.690;5.982;2023-05-07T17:18:22;17.20;99.90
6520;DHT22;3293;51.690;5.982;2023-05-07T17:23:22;17.20;99.90
6520;DHT22;3293;51.690;5.982;2023-05-07T17:28:22;17.10;99.90
6520;DHT22;3293;51.690;5.982;2023-05-07T17:33:22;17.00;99.90
6520;DHT22;3293;51.690;5.982;2023-05-07T17:38:22;16.90;99.90
6520;DHT22;3293;51.690;5.982;2023-05-07T17:43:22;16.80;99.90
6520;DHT22;3293;51.690;5.982;2023-05-07T17:48:23;16.80;99.90
6520;DHT22;3293;51.690;5.982;2023-05-07T17:53:22;16.80;99.90
6520;DHT22;3293;51.690;5.982;2023-05-07T17:58:23;16.70;99.90
6520;DHT22;3293;51.690;5.982;2023-05-07T18:03:25;16.60;99.90
6520;DHT22;3293;51.690;5.982;2023-05-07T18:08:26;16.60;99.90
6520;DHT22;3293;51.690;5.982;2023-05-07T18:13:26;16.60;99.90
6520;DHT22;3293;51.690;5.982;2023-05-07T18:18:26;16.60;99.90
6520;DHT22;3293;51.690;5.982;2023-05-07T18:23:29;16.60;99.90
6520;DHT22;3293;51.690;5.982;2023-05-07T18:28:29;16.50;99.90
6520;DHT22;3293;51.690;5.982;2023-05-07T18:33:29;16.50;99.90
6520;DHT22;3293;51.690;5.982;2023-05-07T18:38:29;16.40;99.90
6520;DHT22;3293;51.690;5.982;2023-05-07T18:43:29;16.50;99.90
6520;DHT22;3293;51.690;5.982;2023-05-07T18:48:29;16.40;99.90
6520;DHT22;3293;51.690;5.982;2023-05-07T18:53:29;16.30;99.90
6520;DHT22;3293;51.690;5.982;2023-05-07T18:58:29;16.20;99.90
6520;DHT22;3293;51.690;5.982;2023-05-07T19:03:29;16.20;99.90
6520;DHT22;3293;51.690;5.982;2023-05-07T19:08:29;16.10;99.90
6520;DHT22;3293;51.690;5.982;2023-05-07T19:13:29;16.00;99.90
6520;DHT22;3293;51.690;5.982;2023-05-07T19:18:29;16.00;99.90
6520;DHT22;3293;51.690;5.982;2023-05-07T19:23:31;15.90;99.90
6520;DHT22;3293;51.690;5.982;2023-05-07T19:28:31;15.90;99.90
6520;DHT22;3293;51.690;5.982;2023-05-07T19:33:31;16.00;99.90
6520;DHT22;3293;51.690;5.982;2023-05-07T19:38:31;15.90;99.90
6520;DHT22;3293;51.690;5.982;2023-05-07T19:43:31;15.80;99.90
6520;DHT22;3293;51.690;5.982;2023-05-07T19:48:36;15.80;99.90
6520;DHT22;3293;51.690;5.982;2023-05-07T19:53:36;15.80;99.90
6520;DHT22;3293;51.690;5.982;2023-05-07T19:58:38;15.80;99.90
6520;DHT22;3293;51.690;5.982;2023-05-07T20:03:38;15.70;99.90
6520;DHT22;3293;51.690;5.982;2023-05-07T20:08:38;15.60;99.90
6520;DHT22;3293;51.690;5.982;2023-05-07T20:13:38;15.60;99.90
6520;DHT22;3293;51.690;5.982;2023-05-07T20:18:39;15.60;99.90
6520;DHT22;3293;51.690;5.982;2023-05-07T20:23:38;15.60;99.90
6520;DHT22;3293;51.690;5.982;2023-05-07T20:28:38;15.60;99.90
6520;DHT22;3293;51.690;5.982;2023-05-07T20:33:38;15.60;99.90
6520;DHT22;3293;51.690;5.982;2023-05-07T20:38:39;15.60;99.90
6520;DHT22;3293;51.690;5.982;2023-05-07T20:43:39;15.60;99.90
6520;DHT22;3293;51.690;5.982;2023-05-07T20:48:41;15.50;99.90
6520;DHT22;3293;51.690;5.982;2023-05-07T20:53:41;15.50;99.90
6520;DHT22;3293;51.690;5.982;2023-05-07T20:58:42;15.50;99.90
6520;DHT22;3293;51.690;5.982;2023-05-07T21:03:43;15.50;99.90
6520;DHT22;3293;51.690;5.982;2023-05-07T21:08:43;15.50;99.90
6520;DHT22;3293;51.690;5.982;2023-05-07T21:13:43;15.40;99.90
6520;DHT22;3293;51.690;5.982;2023-05-07T21:18:44;15.40;99.90
6520;DHT22;3293;51.690;5.982;2023-05-07T21:23:44;15.40;99.90
6520;DHT22;3293;51.690;5.982;2023-05-07T21:28:44;15.40;99.90
6520;DHT22;3293;51.690;5.982;2023-05-07T21:33:45;15.40;99.90
6520;DHT22;3293;51.690;5.982;2023-05-07T21:38:45;15.40;99.90
6520;DHT22;3293;51.690;5.982;2023-05-07T21:43:45;15.30;99.90
6520;DHT22;3293;51.690;5.982;2023-05-07T21:48:45;15.40;99.90
6520;DHT22;3293;51.690;5.982;2023-05-07T21:53:44;15.30;99.90
6520;DHT22;3293;51.690;5.982;2023-05-07T21:58:44;15.30;99.90
6520;DHT22;3293;51.690;5.982;2023-05-07T22:03:44;15.30;99.90
6520;DHT22;3293;51.690;5.982;2023-05-07T22:08:45;15.20;99.90
6520;DHT22;3293;51.690;5.982;2023-05-07T22:13:45;15.20;99.90
6520;DHT22;3293;51.690;5.982;2023-05-07T22:18:46;15.20;99.90
6520;DHT22;3293;51.690;5.982;2023-05-07T22:23:48;15.20;99.90
6520;DHT22;3293;51.690;5.982;2023-05-07T22:28:48;15.20;99.90
6520;DHT22;3293;51.690;5.982;2023-05-07T22:33:49;15.20;99.90
6520;DHT22;3293;51.690;5.982;2023-05-07T22:38:49;15.20;99.90
6520;DHT22;3293;51.690;5.982;2023-05-07T22:43:49;15.20;99.90
6520;DHT22;3293;51.690;5.982;2023-05-07T22:48:49;15.10;99.90
6520;DHT22;3293;51.690;5.982;2023-05-07T22:53:49;15.10;99.90
6520;DHT22;3293;51.690;5.982;2023-05-07T22:58:52;15.10;99.90
6520;DHT22;3293;51.690;5.982;2023-05-07T23:03:53;15.10;99.90
6520;DHT22;3293;51.690;5.982;2023-05-07T23:08:53;15.10;99.90
6520;DHT22;3293;51.690;5.982;2023-05-07T23:13:54;15.10;99.90
6520;DHT22;3293;51.690;5.982;2023-05-07T23:18:56;15.10;99.90
6520;DHT22;3293;51.690;5.982;2023-05-07T23:24:11;15.10;99.90
6520;DHT22;3293;51.690;5.982;2023-05-07T23:29:11;15.10;99.90
6520;DHT22;3293;51.690;5.982;2023-05-07T23:34:22;15.10;99.90
6520;DHT22;3293;51.690;5.982;2023-05-07T23:39:23;15.10;99.90
6520;DHT22;3293;51.690;5.982;2023-05-07T23:44:24;15.00;99.90
6520;DHT22;3293;51.690;5.982;2023-05-07T23:49:40;15.00;99.90
6520;DHT22;3293;51.690;5.982;2023-05-07T23:54:40;15.00;99.90
6520;DHT22;3293;51.690;5.982;2023-05-07T23:59:43;15.00;99.90
